createdAt,value
2022-10-17T00:00:43.898Z,42.60
2022-10-17T00:05:50.609Z,42.90
2022-10-17T00:10:58.778Z,42.70
2022-10-17T00:16:03.579Z,43.20
2022-10-17T00:21:06.957Z,43.10
2022-10-17T00:26:11.112Z,42.70
2022-10-17T00:31:16.195Z,42.80
2022-10-17T00:36:22.229Z,43.00
2022-10-17T00:41:28.060Z,43.30
2022-10-17T00:46:34.340Z,44.00
2022-10-17T00:51:43.932Z,43.00
2022-10-17T00:56:48.969Z,43.10
2022-10-17T01:02:00.903Z,43.10
2022-10-17T01:07:04.795Z,43.30
2022-10-17T01:12:16.457Z,43.00
2022-10-17T01:17:28.877Z,43.30
2022-10-17T01:22:40.628Z,43.30
2022-10-17T01:28:11.481Z,43.00
2022-10-17T01:33:20.939Z,42.90
2022-10-17T01:38:28.733Z,42.90
2022-10-17T01:43:38.500Z,43.00
2022-10-17T01:48:46.669Z,43.00
2022-10-17T01:53:54.197Z,42.80
2022-10-17T01:59:01.959Z,42.70
2022-10-17T02:04:10.576Z,42.50
2022-10-17T02:09:21.691Z,42.70
2022-10-17T02:14:37.213Z,42.60
2022-10-17T02:19:51.566Z,42.60
2022-10-17T02:25:03.987Z,42.60
2022-10-17T02:30:13.369Z,42.50
2022-10-17T02:35:21.257Z,42.50
2022-10-17T02:40:25.808Z,42.60
2022-10-17T02:45:35.813Z,42.60
2022-10-17T02:50:50.254Z,42.60
2022-10-17T02:55:59.848Z,42.70
2022-10-17T03:01:05.260Z,42.50
2022-10-17T03:06:09.853Z,42.30
2022-10-17T03:11:13.061Z,42.70
2022-10-17T03:16:16.134Z,42.60
2022-10-17T03:21:20.625Z,42.50
2022-10-17T03:26:24.241Z,42.70
2022-10-17T03:31:27.469Z,42.60
2022-10-17T03:36:31.978Z,42.70
2022-10-17T03:41:35.473Z,43.00
2022-10-17T03:46:38.667Z,43.00
2022-10-17T03:51:43.154Z,43.00
2022-10-17T03:56:46.376Z,43.30
2022-10-17T04:01:49.573Z,42.90
2022-10-17T04:06:54.134Z,43.00
2022-10-17T04:11:57.247Z,43.50
2022-10-17T04:17:00.363Z,43.40
2022-10-17T04:22:04.864Z,43.60
2022-10-17T04:27:08.110Z,43.80
2022-10-17T04:32:11.197Z,43.70
2022-10-17T04:37:15.659Z,43.90
2022-10-17T04:42:18.728Z,44.10
2022-10-17T04:47:21.804Z,43.90
2022-10-17T04:52:26.746Z,44.00
2022-10-17T04:57:30.032Z,44.70
2022-10-17T05:02:33.141Z,44.40
2022-10-17T05:07:41.252Z,44.50
2022-10-17T05:12:44.345Z,44.80
2022-10-17T05:17:47.488Z,44.70
2022-10-17T05:22:51.998Z,44.80
2022-10-17T05:27:55.221Z,45.60
2022-10-17T05:32:58.339Z,44.80
2022-10-17T05:38:02.855Z,44.80
2022-10-17T05:43:05.965Z,44.90
2022-10-17T05:48:10.105Z,45.00
2022-10-17T05:53:14.566Z,44.70
2022-10-17T05:58:22.078Z,44.80
2022-10-17T06:03:25.615Z,44.40
2022-10-17T06:08:30.059Z,44.30
2022-10-17T06:13:33.282Z,44.50
2022-10-17T06:18:36.467Z,44.30
2022-10-17T06:23:40.987Z,44.40
2022-10-17T06:28:44.271Z,44.40
2022-10-17T06:33:47.589Z,44.40
2022-10-17T06:38:52.088Z,44.60
2022-10-17T06:43:55.143Z,44.70
2022-10-17T06:48:58.224Z,44.80
2022-10-17T06:54:02.673Z,44.70
2022-10-17T06:59:05.841Z,44.80
2022-10-17T07:04:08.910Z,44.80
2022-10-17T07:09:13.338Z,44.80
2022-10-17T07:14:18.053Z,45.20
2022-10-17T07:19:21.356Z,45.00
2022-10-17T07:24:25.829Z,45.60
2022-10-17T07:29:28.959Z,46.40
2022-10-17T07:34:32.013Z,46.30
2022-10-17T07:39:36.804Z,46.70
2022-10-17T07:44:39.916Z,47.80
2022-10-17T07:49:44.241Z,47.90
2022-10-17T07:54:48.697Z,48.40
2022-10-17T07:59:52.003Z,49.20
2022-10-17T08:04:55.592Z,49.00
2022-10-17T08:10:00.187Z,49.10
2022-10-17T08:15:03.450Z,49.50
2022-10-17T08:20:07.903Z,49.00
2022-10-17T08:25:12.762Z,48.90
2022-10-17T08:30:15.940Z,48.80
2022-10-17T08:35:19.189Z,48.50
2022-10-17T08:40:27.516Z,48.40
2022-10-17T08:45:34.987Z,48.20
2022-10-17T08:50:41.577Z,48.00
2022-10-17T08:55:48.300Z,48.20
2022-10-17T09:01:03.093Z,47.50
2022-10-17T09:06:21.927Z,47.70
2022-10-17T09:11:41.900Z,47.20
2022-10-17T09:16:57.772Z,46.70
2022-10-17T09:22:05.452Z,46.40
2022-10-17T09:27:20.064Z,46.00
2022-10-17T09:32:27.025Z,45.90
2022-10-17T09:37:33.757Z,45.80
2022-10-17T09:42:39.074Z,45.30
2022-10-17T09:47:45.753Z,45.40
2022-10-17T09:52:50.848Z,45.00
2022-10-17T09:57:57.620Z,45.10
2022-10-17T10:03:12.262Z,44.30
2022-10-17T10:08:18.058Z,44.60
2022-10-17T10:13:26.728Z,44.30
2022-10-17T10:18:32.638Z,44.00
2022-10-17T10:23:40.079Z,44.20
2022-10-17T10:28:54.132Z,44.20
2022-10-17T10:33:57.857Z,43.20
2022-10-17T10:39:03.954Z,43.70
2022-10-17T10:44:16.320Z,43.40
2022-10-17T10:49:30.885Z,42.00
2022-10-17T10:59:58.299Z,42.30
2022-10-17T11:05:07.865Z,41.50
2022-10-17T11:10:16.292Z,41.40
2022-10-17T11:15:26.368Z,41.80
2022-10-17T11:20:37.573Z,42.30
2022-10-17T11:25:42.514Z,42.90
2022-10-17T11:31:07.871Z,42.20
2022-10-17T11:36:12.295Z,41.80
2022-10-17T11:41:19.829Z,42.20
2022-10-17T11:46:25.871Z,41.60
2022-10-17T11:57:19.942Z,41.10
2022-10-17T12:02:35.665Z,41.40
2022-10-17T12:07:48.300Z,40.40
2022-10-17T12:12:51.431Z,40.90
2022-10-17T12:17:59.225Z,41.60
2022-10-17T12:23:23.165Z,40.20
2022-10-17T12:28:32.092Z,40.10
2022-10-17T12:33:39.598Z,40.10
2022-10-17T12:38:45.702Z,40.10
2022-10-17T12:43:52.786Z,40.90
2022-10-17T12:49:25.492Z,40.10
2022-10-17T12:54:37.806Z,40.20
2022-10-17T12:59:50.521Z,40.50
2022-10-17T13:05:06.424Z,40.30
2022-10-17T13:10:24.368Z,40.20
2022-10-17T13:15:27.819Z,40.30
2022-10-17T13:20:33.345Z,40.50
2022-10-17T13:25:38.891Z,39.80
2022-10-17T13:30:49.811Z,40.50
2022-10-17T13:36:01.670Z,39.90
2022-10-17T13:41:34.101Z,40.60
2022-10-17T13:46:38.403Z,40.60
2022-10-17T13:51:46.553Z,40.60
2022-10-17T13:56:57.615Z,40.70
2022-10-17T14:02:02.685Z,40.20
2022-10-17T14:07:07.692Z,40.60
2022-10-17T14:12:13.550Z,40.70
2022-10-17T14:17:22.196Z,40.60
2022-10-17T14:22:30.602Z,40.70
2022-10-17T14:27:36.273Z,40.60
2022-10-17T14:32:39.581Z,40.60
2022-10-17T14:37:47.732Z,40.60
2022-10-17T14:42:51.705Z,40.60
2022-10-17T14:47:58.681Z,40.60
2022-10-17T14:53:05.945Z,40.60
2022-10-17T14:58:19.034Z,40.60
2022-10-17T15:03:22.289Z,40.60
2022-10-17T15:08:26.807Z,40.50
2022-10-17T15:13:32.398Z,40.50
2022-10-17T15:18:38.146Z,40.60
2022-10-17T15:23:42.720Z,40.50
2022-10-17T15:28:47.450Z,40.50
2022-10-17T15:33:51.090Z,41.00
2022-10-17T15:38:57.455Z,41.20
2022-10-17T15:44:01.029Z,41.10
2022-10-17T15:49:07.612Z,41.00
2022-10-17T15:59:19.392Z,41.10
2022-10-17T16:04:24.147Z,41.10
2022-10-17T16:09:29.972Z,40.90
2022-10-17T16:14:33.323Z,41.00
2022-10-17T16:19:36.414Z,41.00
2022-10-17T16:24:40.880Z,41.10
2022-10-17T16:29:43.960Z,41.20
2022-10-17T16:34:47.026Z,41.20
2022-10-17T16:39:53.543Z,41.10
2022-10-17T16:44:56.649Z,41.10
2022-10-17T16:49:59.704Z,40.90
2022-10-17T16:55:04.471Z,41.00
2022-10-17T17:00:09.228Z,41.00
2022-10-17T17:05:13.014Z,41.10
2022-10-17T17:10:17.755Z,40.90
2022-10-17T17:15:20.825Z,40.90
2022-10-17T17:20:23.900Z,41.10
2022-10-17T17:25:28.365Z,41.00
2022-10-17T17:30:31.425Z,41.00
2022-10-17T17:35:34.611Z,41.10
2022-10-17T17:40:49.632Z,41.10
2022-10-17T17:45:55.083Z,42.00
2022-10-17T17:50:58.133Z,41.10
2022-10-17T17:56:07.073Z,41.00
2022-10-17T18:01:14.870Z,41.40
2022-10-17T18:06:19.055Z,41.40
2022-10-17T18:11:23.813Z,41.40
2022-10-17T18:16:27.369Z,41.50
2022-10-17T18:21:30.470Z,41.30
2022-10-17T18:26:35.427Z,41.30
2022-10-17T18:31:38.696Z,41.50
2022-10-17T18:36:41.785Z,41.30
2022-10-17T18:41:46.301Z,41.50
2022-10-17T18:46:49.989Z,41.50
2022-10-17T18:51:53.218Z,41.50
2022-10-17T18:56:57.929Z,41.70
2022-10-17T19:02:01.138Z,41.90
2022-10-17T19:07:04.439Z,41.60
2022-10-17T19:12:08.949Z,41.80
2022-10-17T19:17:12.065Z,41.80
2022-10-17T19:22:15.154Z,41.80
2022-10-17T19:27:20.465Z,41.90
2022-10-17T19:32:23.575Z,42.00
2022-10-17T19:37:28.575Z,41.70
2022-10-17T19:42:35.063Z,41.70
2022-10-17T19:47:39.832Z,41.70
2022-10-17T19:52:42.961Z,42.10
2022-10-17T19:57:47.723Z,41.80
2022-10-17T20:02:51.157Z,41.80
2022-10-17T20:07:54.228Z,41.60
2022-10-17T20:12:58.792Z,41.80
2022-10-17T20:18:02.101Z,42.20
2022-10-17T20:23:06.195Z,42.00
2022-10-17T20:28:10.900Z,42.40
2022-10-17T20:33:15.725Z,42.50
2022-10-17T20:38:18.793Z,42.40
2022-10-17T20:43:23.248Z,42.50
2022-10-17T20:48:28.176Z,42.70
2022-10-17T20:53:37.032Z,42.60
2022-10-17T20:58:41.928Z,42.50
2022-10-17T21:03:46.634Z,42.80
2022-10-17T21:08:51.467Z,42.60
2022-10-17T21:14:00.931Z,42.60
2022-10-17T21:19:04.475Z,43.20
2022-10-17T21:24:12.480Z,42.60
2022-10-17T21:29:17.136Z,42.80
2022-10-17T21:34:22.120Z,43.00
2022-10-17T21:39:25.245Z,42.80
2022-10-17T21:44:29.810Z,42.70
2022-10-17T21:49:34.026Z,43.00
2022-10-17T21:54:37.179Z,42.90
2022-10-17T21:59:41.749Z,42.70
2022-10-17T22:04:44.840Z,43.10
2022-10-17T22:09:47.923Z,43.00
2022-10-17T22:14:52.513Z,43.10
2022-10-17T22:19:55.607Z,43.20
2022-10-17T22:24:58.679Z,42.90
2022-10-17T22:30:03.165Z,43.00
2022-10-17T22:35:07.240Z,43.30
2022-10-17T22:40:11.128Z,43.20
2022-10-17T22:45:15.843Z,43.10
2022-10-17T22:50:19.400Z,43.20
2022-10-17T22:55:22.660Z,43.20
2022-10-17T23:05:31.601Z,43.60
2022-10-17T23:10:35.283Z,43.30
2022-10-17T23:15:39.929Z,43.50
2022-10-17T23:20:43.164Z,43.90
2022-10-17T23:25:46.587Z,43.50
2022-10-17T23:30:51.115Z,43.40
2022-10-17T23:35:54.315Z,43.60
2022-10-17T23:40:57.452Z,43.50
2022-10-17T23:46:01.997Z,43.50
2022-10-17T23:51:05.186Z,43.70
2022-10-17T23:56:10.040Z,43.40
